Time;durP1;ratioP1;P1;durP2;ratioP2;P2;SDS_P1;SDS_P2;PMS_P1;PMS_P2;Temp;Humidity;BMP_temperature;BMP_pressure;BME280_temperature;BME280_humidity;BME280_pressure;Samples;Min_cycle;Max_cycle;Signal;HPM_P1;HPM_P2
2022/07/22 00:01:52;;;;;;;9.35;7.38;;;;;;;19.63;75.74;100802.50;5023133;28;20081;-70
2022/07/22 00:04:19;;;;;;;8.80;7.90;;;;;;;19.52;76.37;100796.13;5027539;28;20126;-68
2022/07/22 00:06:46;;;;;;;11.48;8.02;;;;;;;19.42;77.05;100781.66;5028789;28;20048;-69
2022/07/22 00:09:13;;;;;;;9.77;7.13;;;;;;;19.42;77.01;100789.72;5025803;28;20547;-68
2022/07/22 00:11:40;;;;;;;9.13;7.25;;;;;;;19.48;77.03;100802.69;5026753;28;20061;-69
2022/07/22 00:14:06;;;;;;;7.53;6.82;;;;;;;19.48;76.76;100804.53;5029581;28;20361;-70
2022/07/22 00:16:33;;;;;;;10.70;7.32;;;;;;;19.33;76.88;100785.06;5033088;28;20601;-70
2022/07/22 00:18:59;;;;;;;9.90;7.22;;;;;;;19.25;77.41;100782.97;5032047;28;20072;-69
2022/07/22 00:21:26;;;;;;;9.85;7.90;;;;;;;19.37;77.50;100799.09;5028022;28;20041;-70
2022/07/22 00:23:53;;;;;;;9.63;7.45;;;;;;;19.36;77.61;100805.47;5024858;28;20069;-69
2022/07/22 00:26:19;;;;;;;10.10;7.15;;;;;;;19.32;77.09;100802.16;5028455;28;20057;-70
2022/07/22 00:28:46;;;;;;;13.60;7.82;;;;;;;19.38;77.08;100803.50;5026945;28;20450;-69
2022/07/22 00:31:13;;;;;;;8.45;6.95;;;;;;;19.30;77.42;100800.56;5028944;28;20563;-69
2022/07/22 00:33:39;;;;;;;10.35;7.28;;;;;;;19.21;77.65;100786.00;5032638;28;20458;-69
2022/07/22 00:36:06;;;;;;;10.95;7.10;;;;;;;19.26;77.38;100805.31;5029746;28;20073;-69
2022/07/22 00:38:33;;;;;;;7.82;7.05;;;;;;;19.17;77.79;100788.09;5025887;28;20057;-68
2022/07/22 00:41:00;;;;;;;9.25;7.90;;;;;;;19.23;78.06;100792.09;5033753;28;20080;-70
2022/07/22 00:43:27;;;;;;;8.90;7.22;;;;;;;19.24;78.12;100805.41;5024435;28;20092;-68
2022/07/22 00:45:54;;;;;;;9.57;7.53;;;;;;;19.18;78.15;100797.84;5023441;28;20049;-69
2022/07/22 00:48:21;;;;;;;9.18;8.27;;;;;;;19.09;78.32;100785.13;5028363;28;20041;-70
2022/07/22 00:50:47;;;;;;;12.35;8.20;;;;;;;19.02;78.82;100791.94;5026851;28;20957;-69
2022/07/22 00:53:15;;;;;;;8.77;7.25;;;;;;;18.95;79.36;100785.31;5026621;28;20751;-69
2022/07/22 00:55:42;;;;;;;13.18;8.23;;;;;;;18.77;80.17;100760.72;5049639;28;20100;-69
2022/07/22 00:58:09;;;;;;;10.77;8.02;;;;;;;18.74;80.16;100757.41;5030714;28;20080;-68
2022/07/22 01:00:35;;;;;;;9.75;8.55;;;;;;;18.88;81.08;100781.41;5033308;28;20084;-68
2022/07/22 01:03:02;;;;;;;10.48;8.75;;;;;;;18.80;80.98;100770.38;5033034;28;20128;-68
2022/07/22 01:05:29;;;;;;;11.10;7.68;;;;;;;18.92;81.04;100780.16;5025321;28;20049;-68
2022/07/22 01:07:55;;;;;;;7.88;6.53;;;;;;;18.88;80.50;100776.88;5029572;28;20100;-69
2022/07/22 01:10:22;;;;;;;8.00;6.65;;;;;;;18.84;80.12;100779.91;5039125;28;20136;-70
2022/07/22 01:12:48;;;;;;;7.50;5.82;;;;;;;18.83;79.61;100778.19;5026147;28;20118;-69
2022/07/22 01:15:15;;;;;;;6.93;5.95;;;;;;;18.68;79.41;100756.06;5028660;28;20107;-70
2022/07/22 01:17:42;;;;;;;6.38;5.78;;;;;;;18.75;79.44;100781.44;5031723;28;20190;-69
2022/07/22 01:20:10;;;;;;;6.68;5.60;;;;;;;18.76;79.23;100784.97;5023910;28;20559;-71
2022/07/22 01:22:36;;;;;;;8.02;5.50;;;;;;;18.62;79.45;100771.75;5027938;28;20135;-68
2022/07/22 01:25:04;;;;;;;6.00;5.40;;;;;;;18.70;79.68;100796.19;5023435;28;20062;-68
2022/07/22 01:27:30;;;;;;;5.55;4.93;;;;;;;18.71;79.65;100800.56;5025491;28;20383;-70
2022/07/22 01:29:57;;;;;;;7.18;5.40;;;;;;;18.74;79.63;100803.00;5017834;28;20053;-68
2022/07/22 01:32:24;;;;;;;6.45;5.10;;;;;;;18.74;79.82;100803.00;5031791;28;20050;-70
2022/07/22 01:34:50;;;;;;;7.32;5.07;;;;;;;18.57;79.42;100774.75;5027953;28;21017;-68
2022/07/22 01:37:17;;;;;;;6.32;5.38;;;;;;;18.71;79.24;100798.75;5030127;28;20042;-69
2022/07/22 01:39:44;;;;;;;6.95;4.93;;;;;;;18.72;79.25;100795.09;5022547;28;20075;-70
2022/07/22 01:42:10;;;;;;;6.53;5.55;;;;;;;18.76;78.70;100790.34;5027987;28;20042;-69
2022/07/22 01:44:37;;;;;;;6.68;5.00;;;;;;;18.66;78.26;100789.31;5021579;28;20049;-69
2022/07/22 01:47:04;;;;;;;6.40;4.88;;;;;;;18.70;78.46;100786.31;5035618;28;20559;-70
2022/07/22 01:49:31;;;;;;;5.60;5.10;;;;;;;18.66;78.27;100797.38;5023962;28;20088;-68
2022/07/22 01:51:58;;;;;;;5.97;5.05;;;;;;;18.28;78.46;100725.06;5027773;28;20052;-70
2022/07/22 01:54:24;;;;;;;6.32;5.05;;;;;;;18.62;78.00;100796.75;5025614;28;20099;-70
2022/07/22 01:56:51;;;;;;;7.00;5.15;;;;;;;18.54;78.13;100781.19;5031608;28;20045;-69
2022/07/22 01:59:18;;;;;;;6.60;5.15;;;;;;;18.53;78.36;100790.22;5023689;28;20112;-69
2022/07/22 02:01:44;;;;;;;6.60;5.70;;;;;;;18.51;78.71;100785.91;5031756;28;20080;-68
2022/07/22 02:04:11;;;;;;;7.38;5.35;;;;;;;18.47;78.90;100785.28;5022883;28;20133;-70
2022/07/22 02:06:38;;;;;;;5.35;4.85;;;;;;;18.51;78.81;100794.81;5030889;28;20053;-69
2022/07/22 02:09:05;;;;;;;7.93;4.95;;;;;;;18.44;78.65;100785.50;5030572;28;20091;-69
2022/07/22 02:11:32;;;;;;;8.00;5.00;;;;;;;18.44;78.67;100798.06;5028927;28;20107;-69
2022/07/22 02:13:58;;;;;;;7.95;5.13;;;;;;;18.38;79.12;100783.28;5020931;28;20088;-69
2022/07/22 02:16:25;;;;;;;6.97;5.25;;;;;;;18.38;79.45;100795.84;5031934;28;20041;-68
2022/07/22 02:18:52;;;;;;;6.30;4.93;;;;;;;18.37;79.17;100786.94;5022652;28;20087;-69
2022/07/22 02:21:20;;;;;;;5.95;5.07;;;;;;;18.32;79.73;100785.56;5026369;28;20058;-68
2022/07/22 02:23:47;;;;;;;6.50;5.80;;;;;;;18.32;79.95;100788.22;5025406;28;20137;-69
2022/07/22 02:26:13;;;;;;;5.13;4.55;;;;;;;18.13;79.97;100757.41;5029614;28;20056;-69
2022/07/22 02:28:40;;;;;;;5.32;4.90;;;;;;;18.33;80.73;100785.44;5022274;28;20041;-70
2022/07/22 02:31:06;;;;;;;5.95;5.35;;;;;;;18.35;80.18;100794.22;5026755;28;20137;-70
2022/07/22 02:33:33;;;;;;;5.90;5.30;;;;;;;18.37;80.21;100786.94;5027505;28;20053;-69
2022/07/22 02:36:00;;;;;;;6.60;5.30;;;;;;;18.31;80.53;100783.84;5028563;28;20045;-69
2022/07/22 02:38:26;;;;;;;6.47;5.43;;;;;;;18.37;80.47;100796.81;5023132;28;20103;-68
2022/07/22 02:40:53;;;;;;;6.13;4.97;;;;;;;18.29;80.25;100778.59;5030287;28;20064;-69
2022/07/22 02:43:20;;;;;;;6.03;5.03;;;;;;;18.20;80.53;100772.06;5023857;28;20132;-68
2022/07/22 02:49:46;;;;;;;7.18;6.30;;;;;;;18.20;81.65;100795.34;5022810;28;20111;-69
2022/07/22 02:52:12;;;;;;;6.43;5.82;;;;;;;18.20;82.48;100790.00;5027211;28;20367;-68
2022/07/22 02:54:39;;;;;;;8.13;5.72;;;;;;;18.27;81.53;100796.59;5023488;28;20099;-70
2022/07/22 02:57:06;;;;;;;8.38;6.68;;;;;;;18.21;81.87;100794.38;5025089;28;20045;-69
2022/07/22 02:59:32;;;;;;;7.20;6.50;;;;;;;18.20;81.91;100798.03;5027319;28;20498;-68
2022/07/22 03:01:59;;;;;;;10.90;6.60;;;;;;;18.15;82.32;100802.84;5034366;28;20197;-68
2022/07/22 03:04:25;;;;;;;8.60;6.55;;;;;;;18.14;82.80;100802.00;5018708;28;20049;-68
2022/07/22 03:06:52;;;;;;;6.82;5.57;;;;;;;18.11;82.75;100787.94;5031821;28;20140;-67
2022/07/22 03:09:19;;;;;;;6.88;6.13;;;;;;;18.28;82.28;100795.63;5021587;28;20075;-68
2022/07/22 03:11:45;;;;;;;6.90;6.20;;;;;;;18.20;81.69;100788.16;5028081;28;20099;-68
2022/07/22 03:14:13;;;;;;;6.68;6.07;;;;;;;18.32;81.89;100807.00;5023292;28;20568;-68
2022/07/22 03:16:39;;;;;;;7.03;5.93;;;;;;;18.34;81.87;100799.69;5032993;28;20046;-69
2022/07/22 03:19:06;;;;;;;8.80;6.43;;;;;;;18.40;81.54;100810.00;5024554;28;20057;-69
2022/07/22 03:21:33;;;;;;;7.20;6.47;;;;;;;18.40;81.71;100813.53;5035909;28;20534;-68
2022/07/22 03:24:00;;;;;;;7.05;6.30;;;;;;;18.46;82.01;100814.88;5031151;28;20061;-69
2022/07/22 03:26:26;;;;;;;8.10;6.60;;;;;;;18.52;82.22;100812.63;5028838;28;20050;-68
2022/07/22 03:28:53;;;;;;;8.45;7.05;;;;;;;18.60;81.45;100805.84;5031943;28;20045;-67
2022/07/22 03:31:20;;;;;;;8.60;6.85;;;;;;;18.63;80.99;100809.19;5029527;28;20148;-69
2022/07/22 03:33:47;;;;;;;9.52;7.40;;;;;;;18.69;81.07;100810.56;5030058;28;20057;-68
2022/07/22 03:36:13;;;;;;;10.68;7.60;;;;;;;18.74;81.06;100809.22;5029632;28;20053;-68
2022/07/22 03:38:40;;;;;;;7.68;6.70;;;;;;;18.72;80.77;100789.75;5027028;28;20069;-68
2022/07/22 03:41:07;;;;;;;10.15;7.85;;;;;;;18.95;79.17;100813.97;5029275;28;21000;-68
2022/07/22 03:43:33;;;;;;;10.25;7.85;;;;;;;18.98;79.56;100811.91;5025586;28;20161;-68
2022/07/22 03:46:00;;;;;;;9.07;7.80;;;;;;;19.06;78.65;100806.81;5029552;28;20072;-69
2022/07/22 03:48:26;;;;;;;8.68;7.28;;;;;;;19.17;78.12;100812.25;5031825;28;20543;-69
2022/07/22 03:50:54;;;;;;;9.15;6.88;;;;;;;19.24;77.64;100818.00;5032152;28;20060;-68
2022/07/22 03:53:20;;;;;;;10.20;8.00;;;;;;;19.23;77.41;100811.75;5028221;28;20517;-69
2022/07/22 03:55:47;;;;;;;9.57;8.15;;;;;;;19.11;78.08;100810.00;5031811;28;20073;-69
2022/07/22 03:58:16;;;;;;;10.02;8.80;;;;;;;18.98;79.10;100816.44;5023941;28;20057;-68
2022/07/22 04:00:43;;;;;;;10.68;8.25;;;;;;;18.91;79.74;100811.50;5027926;28;20057;-68
2022/07/22 04:03:10;;;;;;;9.90;8.20;;;;;;;18.86;79.69;100802.13;5026911;28;20646;-68
2022/07/22 04:05:37;;;;;;;8.70;7.80;;;;;;;18.88;79.43;100792.13;5034957;28;20076;-68
2022/07/22 04:08:03;;;;;;;9.30;7.50;;;;;;;19.06;78.92;100808.63;5023916;28;20052;-68
2022/07/22 04:10:30;;;;;;;9.27;8.02;;;;;;;18.93;78.58;100771.16;5026491;28;20111;-69
2022/07/22 04:12:57;;;;;;;10.07;7.72;;;;;;;19.22;77.50;100799.31;5022820;28;20123;-69
2022/07/22 04:15:23;;;;;;;8.23;7.28;;;;;;;19.25;76.97;100801.75;5032121;28;20084;-70
2022/07/22 04:17:51;;;;;;;11.07;7.35;;;;;;;19.14;77.12;100790.13;5020322;28;20489;-68
2022/07/22 04:20:18;;;;;;;8.50;6.22;;;;;;;19.19;77.71;100793.34;5033176;28;20547;-68
2022/07/22 04:22:44;;;;;;;9.05;6.60;;;;;;;19.20;78.03;100803.09;5026773;28;20837;-68
2022/07/22 04:25:11;;;;;;;9.25;7.07;;;;;;;19.26;78.59;100802.63;5026043;28;20395;-68
2022/07/22 04:27:38;;;;;;;8.50;7.03;;;;;;;19.28;78.49;100792.63;5025173;28;20049;-68
2022/07/22 04:30:05;;;;;;;8.55;7.00;;;;;;;19.28;78.67;100796.16;5028532;28;20076;-68
2022/07/22 04:32:32;;;;;;;9.63;7.28;;;;;;;19.33;77.80;100797.66;5032763;28;20459;-69
2022/07/22 04:34:58;;;;;;;9.13;6.45;;;;;;;19.33;78.03;100794.97;5025905;28;20519;-69
2022/07/22 04:37:25;;;;;;;8.27;7.15;;;;;;;19.34;77.74;100794.84;5030617;28;20375;-68
2022/07/22 04:39:51;;;;;;;8.38;6.88;;;;;;;19.35;77.12;100793.03;5031488;28;20559;-69
2022/07/22 04:42:18;;;;;;;10.98;7.57;;;;;;;19.21;77.44;100772.56;5028028;28;20144;-69
2022/07/22 04:44:44;;;;;;;7.93;7.10;;;;;;;19.32;77.60;100795.94;5027491;28;20095;-68
2022/07/22 04:47:11;;;;;;;7.88;6.10;;;;;;;19.31;77.44;100794.22;5032736;28;20041;-69
2022/07/22 04:49:38;;;;;;;8.85;6.90;;;;;;;19.32;76.92;100787.88;5024894;28;20041;-69
2022/07/22 04:52:05;;;;;;;8.60;7.55;;;;;;;19.35;75.77;100785.81;5032053;28;20056;-69
2022/07/22 04:54:35;;;;;;;8.55;7.65;;;;;;;19.34;74.96;100780.56;5028908;28;20053;-68
2022/07/22 04:57:02;;;;;;;9.55;8.50;;;;;;;19.25;75.14;100761.50;5024552;28;20057;-68
2022/07/22 04:59:28;;;;;;;10.25;8.32;;;;;;;19.26;74.83;100757.84;5020482;28;20037;-69
2022/07/22 05:01:55;;;;;;;8.65;7.75;;;;;;;19.44;74.35;100777.03;5033417;28;20123;-68
2022/07/22 05:04:22;;;;;;;8.80;7.47;;;;;;;19.48;74.08;100774.97;5023852;28;20063;-69
2022/07/22 05:06:48;;;;;;;10.60;8.30;;;;;;;19.52;73.97;100784.50;5032309;28;20400;-69
2022/07/22 05:09:15;;;;;;;8.77;7.43;;;;;;;19.55;73.82;100784.28;5022843;28;20088;-69
2022/07/22 05:11:42;;;;;;;9.75;7.90;;;;;;;19.64;73.50;100786.25;5028884;28;20115;-67
2022/07/22 05:14:08;;;;;;;10.73;7.72;;;;;;;19.68;72.72;100785.03;5019476;28;20065;-69
2022/07/22 05:16:37;;;;;;;10.05;7.63;;;;;;;19.80;72.61;100793.97;5030972;28;20111;-69
2022/07/22 05:19:05;;;;;;;9.65;8.50;;;;;;;19.73;73.28;100798.97;5028258;28;20045;-70
2022/07/22 05:21:33;;;;;;;10.63;7.88;;;;;;;19.79;72.78;100798.50;5027261;28;20092;-70
2022/07/22 05:23:59;;;;;;;9.10;8.13;;;;;;;19.92;72.72;100807.28;5024593;28;20079;-69
2022/07/22 05:26:29;;;;;;;8.63;7.20;;;;;;;20.06;72.28;100799.94;5025596;28;20494;-70
2022/07/22 05:28:56;;;;;;;12.15;8.55;;;;;;;19.99;71.59;100786.13;5019830;28;20119;-68
2022/07/22 05:31:23;;;;;;;10.07;8.63;;;;;;;19.78;72.41;100777.09;5029168;28;20066;-68
2022/07/22 05:33:50;;;;;;;10.40;8.07;;;;;;;19.88;72.03;100787.00;5019030;28;20053;-69
2022/07/22 05:36:17;;;;;;;11.10;7.65;;;;;;;19.99;72.64;100798.75;5030831;28;20045;-71
2022/07/22 05:38:44;;;;;;;9.55;8.48;;;;;;;20.11;71.82;100800.44;5019175;28;20065;-68
2022/07/22 05:41:11;;;;;;;11.60;8.63;;;;;;;20.21;71.48;100804.09;5024418;28;20049;-69
2022/07/22 05:43:37;;;;;;;9.68;7.88;;;;;;;20.31;70.65;100794.28;5030084;28;21256;-69
2022/07/22 05:46:05;;;;;;;9.52;7.65;;;;;;;20.50;69.40;100799.91;5026648;28;20076;-69
2022/07/22 05:48:31;;;;;;;11.77;7.15;;;;;;;20.62;70.78;100795.34;5022608;28;20049;-70
2022/07/22 05:50:58;;;;;;;10.75;8.57;;;;;;;20.67;68.35;100791.31;5022088;28;20049;-70
2022/07/22 05:53:25;;;;;;;10.07;8.38;;;;;;;20.52;68.79;100778.28;5027268;28;20099;-68
2022/07/22 05:55:51;;;;;;;12.55;8.73;;;;;;;20.52;68.73;100797.09;5028739;28;20053;-69
2022/07/22 05:58:18;;;;;;;10.73;8.80;;;;;;;20.36;69.62;100797.50;5023402;28;20095;-69
2022/07/22 06:00:44;;;;;;;9.43;7.85;;;;;;;20.36;70.04;100797.50;5024910;28;20502;-69
2022/07/22 06:03:11;;;;;;;10.65;8.75;;;;;;;20.46;69.06;100795.75;5026311;28;20132;-69
2022/07/22 06:05:44;;;;;;;9.73;8.68;;;;;;;20.49;68.67;100795.53;5028488;28;20049;-69
2022/07/22 06:08:11;;;;;;;12.52;9.73;;;;;;;20.49;68.20;100795.53;5027720;28;20053;-70
2022/07/22 06:10:37;;;;;;;13.77;10.02;;;;;;;20.38;67.75;100794.69;5016764;28;20136;-68
2022/07/22 06:13:04;;;;;;;12.32;10.07;;;;;;;20.25;68.50;100797.50;5022780;28;20076;-69
2022/07/22 06:15:31;;;;;;;11.20;9.95;;;;;;;19.99;68.77;100785.31;5023343;28;20129;-69
2022/07/22 06:17:57;;;;;;;13.73;9.98;;;;;;;19.88;70.59;100795.06;5027334;28;20045;-69
2022/07/22 06:20:24;;;;;;;13.55;9.82;;;;;;;19.79;70.44;100787.75;5024729;28;20051;-69
2022/07/22 06:22:51;;;;;;;12.68;10.02;;;;;;;19.86;70.59;100785.41;5025531;28;20049;-69
2022/07/22 06:25:18;;;;;;;11.95;9.90;;;;;;;19.89;69.72;100794.09;5018580;28;20042;-69
2022/07/22 06:28:04;;;;;;;13.95;10.27;;;;;;;19.76;70.37;100787.97;5021870;28;20061;-70
2022/07/22 06:30:31;;;;;;;13.43;9.95;;;;;;;19.76;69.94;100790.66;5026980;28;20073;-68
2022/07/22 06:32:57;;;;;;;12.48;10.35;;;;;;;19.72;70.75;100786.50;5025280;28;20045;-68
2022/07/22 06:35:27;;;;;;;12.93;10.38;;;;;;;19.82;70.59;100794.72;5026015;28;20045;-69
2022/07/22 06:37:54;;;;;;;13.52;10.45;;;;;;;19.79;70.75;100768.06;5021435;28;20148;-69
2022/07/22 06:40:41;;;;;;;12.48;9.52;;;;;;;20.04;69.79;100786.63;5027822;28;20561;-71
2022/07/22 06:43:08;;;;;;;10.35;9.27;;;;;;;20.14;69.24;100784.06;5025961;28;20132;-68
2022/07/22 06:45:34;;;;;;;10.88;9.38;;;;;;;20.24;69.19;100768.91;5029935;28;20061;-68
2022/07/22 06:48:01;;;;;;;11.73;9.20;;;;;;;20.50;68.61;100789.16;5025960;28;20049;-68
2022/07/22 06:50:27;;;;;;;10.27;8.40;;;;;;;20.67;66.95;100785.94;5026824;28;20068;-69
2022/07/22 06:52:54;;;;;;;9.85;8.00;;;;;;;20.83;66.41;100788.22;5028295;28;20509;-69
2022/07/22 06:55:21;;;;;;;8.45;7.65;;;;;;;21.06;65.91;100794.38;5029597;28;20137;-68
2022/07/22 06:57:48;;;;;;;9.82;8.50;;;;;;;21.26;63.92;100793.53;5022247;28;20448;-68
2022/07/22 07:00:15;;;;;;;8.65;7.05;;;;;;;21.40;62.56;100791.53;5027265;28;20077;-69
2022/07/22 07:02:42;;;;;;;8.32;6.45;;;;;;;21.61;63.29;100797.75;5020490;28;20473;-68
2022/07/22 07:05:09;;;;;;;11.93;7.18;;;;;;;21.87;61.60;100782.88;5024744;28;20045;-68
2022/07/22 07:07:46;;;;;;;7.90;6.93;;;;;;;22.19;59.92;100795.38;5026062;28;20132;-69
2022/07/22 07:10:15;;;;;;;8.52;7.63;;;;;;;22.22;58.66;100771.66;5030770;28;20045;-71
2022/07/22 07:12:42;;;;;;;11.02;6.80;;;;;;;22.57;57.59;100783.81;5030399;28;20630;-70
2022/07/22 07:15:09;;;;;;;7.35;6.63;;;;;;;22.67;57.76;100782.81;5028962;28;20109;-69
2022/07/22 07:17:54;;;;;;;8.25;6.88;;;;;;;22.67;57.45;100774.72;5015669;28;20361;-69
2022/07/22 07:20:21;;;;;;;8.10;7.10;;;;;;;22.70;58.03;100771.75;5027037;28;20053;-69
2022/07/22 07:22:48;;;;;;;8.90;8.00;;;;;;;22.70;58.18;100774.44;5019755;28;20433;-69
2022/07/22 07:25:15;;;;;;;11.60;8.50;;;;;;;22.42;59.23;100769.84;5025735;28;20316;-68
2022/07/22 07:27:47;;;;;;;9.32;6.90;;;;;;;22.58;58.14;100762.06;5026670;28;20053;-69
2022/07/22 07:30:15;;;;;;;9.52;7.75;;;;;;;22.63;57.19;100749.03;5030871;28;20132;-70
2022/07/22 07:32:42;;;;;;;10.50;7.68;;;;;;;23.00;57.41;100753.72;5028749;28;20059;-68
2022/07/22 07:35:09;;;;;;;9.00;7.00;;;;;;;23.50;56.00;100753.50;5014853;28;20112;-68
2022/07/22 07:37:36;;;;;;;8.50;6.95;;;;;;;23.83;54.86;100757.56;5021342;28;20570;-68
2022/07/22 07:40:04;;;;;;;8.23;6.90;;;;;;;24.30;52.93;100752.94;5026808;28;20053;-69
2022/07/22 07:42:31;;;;;;;12.18;6.10;;;;;;;24.80;51.64;100750.59;5018006;28;20144;-70
2022/07/22 07:44:57;;;;;;;6.68;5.18;;;;;;;25.08;49.93;100737.81;5018809;28;20123;-69
2022/07/22 07:47:24;;;;;;;6.28;5.57;;;;;;;25.52;48.10;100747.63;5016945;28;20151;-68
2022/07/22 07:49:51;;;;;;;7.18;6.47;;;;;;;25.77;47.91;100745.09;5015189;28;20731;-68
2022/07/22 07:52:18;;;;;;;9.57;6.93;;;;;;;25.93;47.30;100741.63;5016169;28;20069;-68
2022/07/22 07:54:47;;;;;;;8.73;6.57;;;;;;;25.98;46.77;100742.81;5021063;28;20057;-70
2022/07/22 07:57:35;;;;;;;7.80;5.82;;;;;;;26.08;46.77;100743.56;5021762;28;20053;-69
2022/07/22 08:00:06;;;;;;;7.35;6.65;;;;;;;26.20;45.60;100738.69;5021628;28;20049;-68
2022/07/22 08:02:38;;;;;;;7.90;6.47;;;;;;;25.85;47.31;100743.28;5020373;28;20494;-70
2022/07/22 08:05:06;;;;;;;6.25;5.65;;;;;;;25.59;48.79;100742.44;5019128;28;20049;-70
2022/07/22 08:07:33;;;;;;;8.75;5.88;;;;;;;25.57;47.44;100740.88;5029957;28;20061;-68
2022/07/22 08:10:00;;;;;;;5.95;5.30;;;;;;;25.66;47.67;100740.78;5025076;28;20049;-68
2022/07/22 08:12:48;;;;;;;8.13;6.05;;;;;;;25.89;46.45;100737.53;5015238;28;20286;-69
2022/07/22 08:15:15;;;;;;;7.22;6.10;;;;;;;25.95;46.91;100728.75;5018927;28;20103;-68
2022/07/22 08:17:43;;;;;;;8.07;6.05;;;;;;;26.09;46.58;100723.53;5018937;28;20486;-70
2022/07/22 08:20:10;;;;;;;7.43;6.57;;;;;;;26.29;46.20;100731.44;5023106;28;20045;-69
2022/07/22 08:22:40;;;;;;;7.78;6.15;;;;;;;26.40;45.23;100740.13;5024733;28;20064;-70
2022/07/22 08:25:08;;;;;;;7.68;5.82;;;;;;;26.33;44.81;100719.22;5019262;28;20063;-68
2022/07/22 08:27:35;;;;;;;7.18;6.47;;;;;;;26.45;45.48;100747.75;5022107;28;20462;-68
2022/07/22 08:30:05;;;;;;;9.35;6.63;;;;;;;26.12;45.46;100722.38;5025129;28;20049;-69
2022/07/22 08:32:34;;;;;;;8.30;6.28;;;;;;;26.12;45.36;100734.09;5021664;28;20136;-68
2022/07/22 08:35:01;;;;;;;7.78;6.18;;;;;;;25.68;46.81;100735.22;5023790;28;20148;-69
2022/07/22 08:37:28;;;;;;;7.13;6.18;;;;;;;24.74;48.46;100718.69;5022035;28;20121;-69
2022/07/22 08:39:54;;;;;;;7.75;5.93;;;;;;;24.56;49.49;100710.56;5033061;28;20057;-70
2022/07/22 08:42:22;;;;;;;9.02;5.95;;;;;;;25.08;49.12;100730.53;5029611;28;20053;-68
2022/07/22 08:44:51;;;;;;;7.13;5.88;;;;;;;25.44;47.96;100727.75;5019714;28;20163;-69
2022/07/22 08:47:23;;;;;;;7.10;6.13;;;;;;;25.66;46.86;100720.94;5026579;28;20497;-68
2022/07/22 08:50:08;;;;;;;6.63;5.93;;;;;;;25.56;47.04;100715.63;5023198;28;20573;-68
2022/07/22 08:52:34;;;;;;;8.07;6.70;;;;;;;25.29;48.33;100716.66;5015872;28;20760;-69
2022/07/22 08:55:06;;;;;;;6.63;5.82;;;;;;;24.98;48.77;100715.41;5014642;28;20104;-68
2022/07/22 08:57:33;;;;;;;6.80;6.10;;;;;;;24.62;50.92;100709.13;5015912;28;20131;-68
2022/07/22 09:00:03;;;;;;;9.13;6.38;;;;;;;24.64;49.71;100705.25;5016828;28;20049;-69
2022/07/22 09:02:36;;;;;;;;;;;;;;;24.51;49.93;100706.66;5024689;28;20057;-69
2022/07/22 09:05:05;;;;;;;7.80;6.95;;;;;;;24.02;51.71;100693.41;5025791;28;19921;-70
2022/07/22 09:07:58;;;;;;;7.60;6.80;;;;;;;24.42;50.68;100708.41;5018115;28;20448;-68
2022/07/22 09:10:31;;;;;;;10.02;7.20;;;;;;;24.48;50.67;100705.94;5024640;28;20087;-68
2022/07/22 09:13:00;;;;;;;7.60;6.43;;;;;;;24.85;50.00;100707.66;5021401;28;20485;-68
2022/07/22 09:15:30;;;;;;;7.97;6.17;;;;;;;25.17;49.20;100707.09;5022799;28;20061;-68
2022/07/22 09:17:58;;;;;;;7.53;6.40;;;;;;;25.28;48.72;100704.09;5014389;28;20476;-69
2022/07/22 09:20:31;;;;;;;8.77;7.43;;;;;;;25.33;48.44;100707.19;5023752;28;20066;-68
2022/07/22 09:22:57;;;;;;;6.60;5.90;;;;;;;25.33;49.11;100711.78;5017882;28;20049;-68
2022/07/22 09:25:32;;;;;;;8.25;6.85;;;;;;;25.26;48.05;100714.25;5016145;28;20078;-68
2022/07/22 09:28:05;;;;;;;6.78;6.07;;;;;;;25.13;47.85;100692.16;5022064;28;20055;-69
2022/07/22 09:30:36;;;;;;;8.25;6.28;;;;;;;25.14;48.18;100705.53;5020971;28;20060;-70
2022/07/22 09:33:05;;;;;;;7.88;5.80;;;;;;;25.15;48.44;100700.97;5021553;28;20073;-69
2022/07/22 09:35:33;;;;;;;8.65;5.93;;;;;;;25.17;48.60;100704.38;5024109;28;20053;-69
2022/07/22 09:38:02;;;;;;;5.97;5.38;;;;;;;25.24;48.54;100708.13;5025422;28;20044;-69
2022/07/22 09:40:32;;;;;;;5.97;5.45;;;;;;;25.34;47.47;100706.16;5029034;28;20057;-69
2022/07/22 09:43:00;;;;;;;;;;;;;;;25.39;47.76;100706.53;5017738;28;20052;-67
2022/07/22 09:45:29;;;;;;;7.50;6.10;;;;;;;25.29;47.57;100677.84;5022027;28;20394;-68
2022/07/22 09:47:57;;;;;;;6.83;5.90;;;;;;;25.34;47.75;100695.31;5017410;28;20552;-68
2022/07/22 09:50:34;;;;;;;7.80;6.07;;;;;;;25.02;47.67;100677.00;5020438;28;20088;-67
2022/07/22 09:53:03;;;;;;;6.88;5.40;;;;;;;25.07;47.97;100690.06;5016301;28;20056;-68
2022/07/22 09:55:30;;;;;;;8.20;5.72;;;;;;;25.30;47.33;100687.69;5012963;28;20476;-70
2022/07/22 09:57:57;;;;;;;6.93;6.28;;;;;;;25.34;47.08;100679.06;5017402;28;20049;-67
2022/07/22 10:00:26;;;;;;;9.18;6.45;;;;;;;25.08;48.19;100676.34;5017640;28;20049;-68
2022/07/22 10:02:56;;;;;;;6.20;5.53;;;;;;;25.10;49.04;100673.50;5019229;28;20132;-68
2022/07/22 10:05:25;;;;;;;7.45;5.80;;;;;;;25.09;48.04;100671.78;5019419;28;20045;-69
2022/07/22 10:07:53;;;;;;;7.35;6.50;;;;;;;25.04;47.74;100672.25;5020345;28;20131;-68
2022/07/22 10:10:23;;;;;;;6.60;5.82;;;;;;;25.00;48.19;100659.19;5013214;28;20057;-68
2022/07/22 10:12:52;;;;;;;6.95;6.25;;;;;;;25.06;48.20;100662.09;5015729;28;20045;-70
2022/07/22 10:15:20;;;;;;;8.43;5.70;;;;;;;25.18;47.94;100663.53;5020055;28;20065;-70
2022/07/22 10:17:49;;;;;;;6.35;5.43;;;;;;;25.38;47.79;100660.63;5022813;28;20520;-69
2022/07/22 10:20:28;;;;;;;6.60;5.40;;;;;;;25.48;47.88;100636.97;5023060;28;20084;-69
2022/07/22 10:22:58;;;;;;;7.00;5.78;;;;;;;25.76;47.16;100657.44;5025581;28;20472;-67
2022/07/22 10:25:32;;;;;;;6.80;5.85;;;;;;;25.95;46.97;100653.63;5023733;28;20526;-68
2022/07/22 10:28:03;;;;;;;7.20;5.95;;;;;;;25.92;46.86;100650.38;5017278;28;22559;-68
2022/07/22 10:30:40;;;;;;;7.25;6.55;;;;;;;26.07;45.05;100646.00;5020440;28;20108;-69
2022/07/22 10:33:11;;;;;;;7.70;5.97;;;;;;;26.24;45.75;100645.03;5022133;28;20045;-71
2022/07/22 10:35:55;;;;;;;8.02;5.97;;;;;;;26.43;44.63;100652.91;5022058;28;20445;-70
2022/07/22 10:38:23;;;;;;;7.15;5.03;;;;;;;26.57;44.29;100642.38;5021622;28;20049;-69
2022/07/22 10:40:52;;;;;;;7.00;5.95;;;;;;;26.66;43.71;100639.50;5026653;28;20053;-70
2022/07/22 10:43:26;;;;;;;6.90;5.80;;;;;;;26.64;44.34;100644.25;5016406;28;20042;-68
2022/07/22 10:46:02;;;;;;;8.23;6.00;;;;;;;26.50;44.07;100636.78;5031750;28;20482;-71
2022/07/22 10:48:32;;;;;;;9.07;6.15;;;;;;;26.52;44.46;100635.59;5025585;28;20107;-71
2022/07/22 10:51:10;;;;;;;5.90;5.30;;;;;;;26.53;44.80;100631.84;5034267;28;20195;-70
2022/07/22 10:53:44;;;;;;;7.40;5.88;;;;;;;26.36;44.80;100640.16;5035808;28;20135;-71
2022/07/22 10:56:20;;;;;;;7.22;5.68;;;;;;;26.37;44.93;100628.28;5029142;28;20490;-69
2022/07/22 10:58:51;;;;;;;7.30;6.55;;;;;;;26.23;44.76;100608.06;5021790;28;20092;-69
2022/07/22 11:01:21;;;;;;;5.75;5.25;;;;;;;26.32;45.00;100614.34;5025809;28;20069;-71
2022/07/22 11:03:49;;;;;;;7.43;5.95;;;;;;;26.21;44.44;100623.66;5025629;28;20041;-70
2022/07/22 11:06:25;;;;;;;6.38;5.78;;;;;;;26.06;44.75;100619.88;5022410;28;20157;-71
2022/07/22 11:08:57;;;;;;;8.45;5.65;;;;;;;26.13;44.86;100610.91;5023247;28;20085;-69
2022/07/22 11:11:38;;;;;;;7.13;5.43;;;;;;;26.25;45.39;100608.72;5014884;28;20263;-68
2022/07/22 11:14:16;;;;;;;5.75;5.18;;;;;;;26.48;45.19;100593.50;5024065;28;20260;-68
2022/07/22 11:16:45;;;;;;;5.90;5.20;;;;;;;26.62;43.77;100597.38;5012945;28;20536;-68
2022/07/22 11:19:12;;;;;;;7.90;5.65;;;;;;;26.31;44.34;100599.94;5015047;28;20071;-69
2022/07/22 11:21:39;;;;;;;7.72;5.30;;;;;;;26.21;45.30;100600.06;5013160;28;20497;-70
2022/07/22 11:24:12;;;;;;;6.30;5.53;;;;;;;26.50;44.33;100582.47;5021997;28;20038;-68
2022/07/22 11:26:48;;;;;;;6.13;5.38;;;;;;;26.63;43.33;100571.06;5021545;28;20147;-69
2022/07/22 11:29:35;;;;;;;6.95;5.63;;;;;;;26.50;43.07;100583.31;5017817;28;20509;-69
2022/07/22 11:32:04;;;;;;;7.47;5.82;;;;;;;26.53;43.73;100587.56;5021667;28;20764;-70
2022/07/22 11:34:31;;;;;;;7.40;5.53;;;;;;;26.64;42.73;100576.34;5024396;28;20057;-69